Time;durP1;ratioP1;P1;durP2;ratioP2;P2;SDS_P1;SDS_P2;PMS_P1;PMS_P2;Temp;Humidity;BMP_temperature;BMP_pressure;BME280_temperature;BME280_humidity;BME280_pressure;Samples;Min_cycle;Max_cycle;Signal;HPM_P1;HPM_P2
2023/01/05 05:01:25;;;;;;;0.10;0.10;;;8.40;99.90;;;;;;5462106;23;20335;-64
2023/01/05 05:03:52;;;;;;;0.40;0.30;;;8.40;99.90;;;;;;4916372;29;20268;-64
2023/01/05 05:06:18;;;;;;;0.38;0.38;;;8.40;99.90;;;;;;4917185;29;20221;-64
2023/01/05 05:08:45;;;;;;;0.20;0.20;;;8.30;99.90;;;;;;4911539;29;20235;-64
2023/01/05 05:11:12;;;;;;;0.10;0.10;;;8.30;99.90;;;;;;4919449;29;20231;-64
2023/01/05 05:13:38;;;;;;;4.70;0.50;;;8.30;99.90;;;;;;4909753;29;20617;-64
2023/01/05 05:16:06;;;;;;;2.05;1.95;;;8.30;99.90;;;;;;4933650;23;20241;-70
2023/01/05 05:18:34;;;;;;;1.85;0.22;;;8.30;99.90;;;;;;4914435;29;20219;-69
2023/01/05 05:21:01;;;;;;;0.30;0.30;;;8.30;99.90;;;;;;4920041;29;20225;-70
2023/01/05 05:23:28;;;;;;;1.27;0.30;;;8.20;99.90;;;;;;4921486;29;20703;-71
2023/01/05 05:25:54;;;;;;;0.10;0.10;;;8.30;99.90;;;;;;4918006;29;20236;-70
2023/01/05 05:28:26;;;;;;;0.20;0.20;;;8.30;99.90;;;;;;4911390;29;20223;-68
2023/01/05 05:30:53;;;;;;;1.00;0.88;;;8.30;99.90;;;;;;4909029;29;20308;-68
2023/01/05 05:33:20;;;;;;;0.10;0.10;;;8.20;99.90;;;;;;4909051;29;20212;-70
2023/01/05 05:35:48;;;;;;;0.20;0.20;;;8.20;99.90;;;;;;4907646;29;20249;-71
2023/01/05 05:38:15;;;;;;;0.43;0.25;;;8.30;99.90;;;;;;4913507;29;20224;-70
2023/01/05 05:40:42;;;;;;;0.40;0.40;;;8.20;99.90;;;;;;4909172;29;20220;-70
2023/01/05 05:43:08;;;;;;;0.20;0.20;;;8.20;99.90;;;;;;4909410;29;20742;-70
2023/01/05 05:45:35;;;;;;;0.30;0.30;;;8.20;99.90;;;;;;4912109;29;20766;-69
2023/01/05 05:48:02;;;;;;;0.40;0.40;;;8.20;99.90;;;;;;4913586;29;20213;-71
2023/01/05 05:50:29;;;;;;;0.10;0.10;;;8.20;99.90;;;;;;4914980;29;20660;-71
2023/01/05 05:52:57;;;;;;;0.25;0.25;;;8.20;99.90;;;;;;4901059;29;20209;-70
2023/01/05 05:55:23;;;;;;;0.30;0.20;;;8.20;99.90;;;;;;4906285;29;20236;-71
2023/01/05 05:57:50;;;;;;;0.20;0.20;;;8.20;99.90;;;;;;4914738;29;20223;-70
2023/01/05 06:00:17;;;;;;;0.10;0.10;;;8.30;99.90;;;;;;4915530;29;20213;-70
2023/01/05 06:02:44;;;;;;;0.60;0.60;;;8.30;99.90;;;;;;4907882;29;20317;-70
2023/01/05 06:05:11;;;;;;;0.30;0.30;;;8.30;99.90;;;;;;4914170;29;20233;-71
2023/01/05 06:07:37;;;;;;;0.22;0.22;;;8.30;99.90;;;;;;4913840;29;20528;-71
2023/01/05 06:10:07;;;;;;;0.10;0.10;;;8.30;99.90;;;;;;4913298;29;20547;-70
2023/01/05 06:12:34;;;;;;;0.17;0.17;;;8.30;99.90;;;;;;4903643;29;20212;-70
2023/01/05 06:15:00;;;;;;;0.25;0.25;;;8.30;99.90;;;;;;4904716;29;20280;-70
2023/01/05 06:17:27;;;;;;;0.65;0.30;;;8.20;99.90;;;;;;4911574;29;20665;-71
2023/01/05 06:19:54;;;;;;;0.20;0.20;;;8.30;99.90;;;;;;4915470;29;20576;-71
2023/01/05 06:22:21;;;;;;;0.20;0.20;;;8.30;99.90;;;;;;4907964;29;20200;-70
2023/01/05 06:24:47;;;;;;;2.63;0.52;;;8.30;99.90;;;;;;4914254;29;20218;-71
2023/01/05 06:27:15;;;;;;;4.68;0.30;;;8.30;99.90;;;;;;4904452;29;20208;-71
2023/01/05 06:29:42;;;;;;;4.35;0.35;;;8.30;99.90;;;;;;4909261;29;20693;-71
2023/01/05 06:32:09;;;;;;;2.88;0.40;;;8.30;99.90;;;;;;4912852;29;20216;-70
2023/01/05 06:34:35;;;;;;;0.30;0.30;;;8.30;99.90;;;;;;4907889;29;20307;-69
2023/01/05 06:37:04;;;;;;;4.32;0.30;;;8.30;99.90;;;;;;4913150;29;20658;-70
2023/01/05 06:39:31;;;;;;;0.10;0.10;;;8.30;99.90;;;;;;4915526;29;20212;-69
2023/01/05 06:41:57;;;;;;;0.73;0.73;;;8.30;99.90;;;;;;4915391;29;20579;-70
2023/01/05 06:44:25;;;;;;;0.20;0.20;;;8.30;99.90;;;;;;4906201;29;20200;-70
2023/01/05 06:46:52;;;;;;;1.00;0.50;;;8.30;99.90;;;;;;4913449;29;20237;-68
2023/01/05 06:49:19;;;;;;;0.20;0.20;;;8.40;99.90;;;;;;4914940;29;20243;-69
2023/01/05 06:51:45;;;;;;;1.95;0.30;;;8.40;99.90;;;;;;4912555;29;20220;-69
2023/01/05 06:54:12;;;;;;;0.20;0.20;;;8.40;99.90;;;;;;4911819;29;20216;-70
2023/01/05 06:56:39;;;;;;;1.25;1.15;;;8.40;99.90;;;;;;4904732;29;20233;-70
2023/01/05 06:59:06;;;;;;;0.40;0.40;;;8.30;99.90;;;;;;4913288;29;20214;-69
2023/01/05 07:01:34;;;;;;;3.33;0.40;;;8.40;99.90;;;;;;4899552;29;20224;-69
2023/01/05 07:04:00;;;;;;;0.40;0.40;;;8.40;99.90;;;;;;4902907;29;20211;-70
2023/01/05 07:06:27;;;;;;;0.60;0.60;;;8.40;99.90;;;;;;4905744;29;20232;-70
2023/01/05 07:08:54;;;;;;;1.58;1.48;;;8.40;99.90;;;;;;4913646;29;20226;-70
2023/01/05 07:11:21;;;;;;;0.80;0.40;;;8.40;99.90;;;;;;4910881;29;20219;-71
2023/01/05 07:13:49;;;;;;;0.30;0.30;;;8.40;99.90;;;;;;4908212;29;20877;-71
2023/01/05 07:16:16;;;;;;;1.10;1.10;;;8.50;99.90;;;;;;4904624;29;20621;-68
2023/01/05 07:18:44;;;;;;;0.60;0.60;;;8.50;99.90;;;;;;4911944;29;20245;-69
2023/01/05 07:21:11;;;;;;;0.20;0.20;;;8.50;99.90;;;;;;4903344;29;20205;-71
2023/01/05 07:23:38;;;;;;;0.30;0.30;;;8.50;99.90;;;;;;4903940;29;20240;-69
2023/01/05 07:26:05;;;;;;;3.97;0.50;;;8.50;99.90;;;;;;4912160;29;20255;-71
2023/01/05 07:28:31;;;;;;;0.10;0.10;;;8.60;99.90;;;;;;4914144;29;20285;-70
2023/01/05 07:30:58;;;;;;;0.30;0.30;;;8.60;99.90;;;;;;4904980;29;20666;-70
2023/01/05 07:33:25;;;;;;;7.63;0.85;;;8.60;99.90;;;;;;4913156;29;20226;-71
2023/01/05 07:35:53;;;;;;;0.20;0.20;;;8.60;99.90;;;;;;4912962;29;20678;-70
2023/01/05 07:38:20;;;;;;;2.95;0.43;;;8.60;99.90;;;;;;4901785;29;20706;-70
2023/01/05 07:40:47;;;;;;;0.20;0.20;;;8.60;99.90;;;;;;4908234;29;20217;-70
2023/01/05 07:43:15;;;;;;;0.85;0.85;;;8.60;99.90;;;;;;4913740;29;20221;-70
2023/01/05 07:45:42;;;;;;;0.63;0.47;;;8.60;99.90;;;;;;4903614;29;20700;-70
2023/01/05 07:48:09;;;;;;;2.38;0.30;;;8.70;99.90;;;;;;4913162;29;20247;-70
2023/01/05 07:50:36;;;;;;;0.65;0.65;;;8.70;99.90;;;;;;4914316;29;20589;-71
2023/01/05 07:53:04;;;;;;;1.20;1.15;;;8.70;99.90;;;;;;4912324;29;20406;-70
2023/01/05 07:55:30;;;;;;;7.88;1.20;;;8.70;99.90;;;;;;4902411;29;20766;-70
2023/01/05 07:57:57;;;;;;;1.45;0.30;;;8.70;99.90;;;;;;4912363;29;20228;-69
2023/01/05 08:00:24;;;;;;;0.85;0.73;;;8.70;99.90;;;;;;4899533;29;20224;-69
2023/01/05 08:02:50;;;;;;;1.55;0.30;;;8.70;99.90;;;;;;4913470;29;20217;-70
2023/01/05 08:05:17;;;;;;;2.75;0.65;;;8.70;99.90;;;;;;4902106;29;20242;-70
2023/01/05 08:07:44;;;;;;;0.10;0.10;;;8.80;99.90;;;;;;4908717;29;20584;-70
2023/01/05 08:10:31;;;;;;;3.33;0.82;;;8.80;99.90;;;;;;4901717;29;20233;-70
2023/01/05 08:15:48;;;;;;;11.55;1.50;;;8.80;99.90;;;;;;4912188;29;20746;-70
2023/01/05 08:18:15;;;;;;;1.95;0.70;;;8.80;99.90;;;;;;4912987;29;20212;-70
2023/01/05 08:20:42;;;;;;;0.50;0.50;;;8.80;99.90;;;;;;4914438;29;20631;-70
2023/01/05 08:23:08;;;;;;;1.25;0.52;;;8.80;99.90;;;;;;4903376;29;20655;-69
2023/01/05 08:25:36;;;;;;;3.22;0.85;;;8.80;99.90;;;;;;4908657;29;20232;-70
2023/01/05 08:28:03;;;;;;;0.17;0.17;;;8.80;99.90;;;;;;4907275;29;20224;-71
2023/01/05 08:30:30;;;;;;;0.17;0.17;;;8.80;99.90;;;;;;4906161;29;20220;-70
2023/01/05 08:32:57;;;;;;;0.47;0.40;;;8.80;99.90;;;;;;4912876;29;20550;-70
2023/01/05 08:35:24;;;;;;;0.20;0.20;;;8.90;99.90;;;;;;4911370;29;20238;-69
2023/01/05 08:37:51;;;;;;;2.25;0.40;;;8.80;99.90;;;;;;4899282;29;20244;-70
2023/01/05 08:40:17;;;;;;;1.05;0.30;;;8.80;99.90;;;;;;4913679;29;20646;-70
2023/01/05 08:42:47;;;;;;;1.35;0.38;;;8.80;99.90;;;;;;4911564;29;20213;-70
2023/01/05 08:45:14;;;;;;;2.00;1.73;;;8.80;99.90;;;;;;4911245;29;20300;-70
2023/01/05 08:47:40;;;;;;;0.57;0.35;;;8.80;99.90;;;;;;4906882;29;20264;-70
2023/01/05 08:50:09;;;;;;;5.15;4.22;;;8.80;99.90;;;;;;4903980;29;20217;-70
2023/01/05 08:52:36;;;;;;;1.08;1.08;;;8.80;99.90;;;;;;4909099;29;20213;-70
2023/01/05 08:55:03;;;;;;;4.57;1.20;;;8.80;99.90;;;;;;4910499;29;20226;-69
2023/01/05 08:57:30;;;;;;;7.22;3.97;;;8.80;99.90;;;;;;4905550;29;20212;-69
2023/01/05 08:59:58;;;;;;;4.68;0.47;;;8.80;99.90;;;;;;4911897;29;20232;-69
2023/01/05 09:02:25;;;;;;;0.80;0.43;;;8.90;99.90;;;;;;4914121;29;20214;-70
2023/01/05 09:04:51;;;;;;;3.45;1.20;;;8.90;99.90;;;;;;4914368;29;20222;-70
2023/01/05 09:07:19;;;;;;;2.30;1.35;;;8.90;99.90;;;;;;4909674;29;20234;-70
2023/01/05 09:09:45;;;;;;;5.00;0.50;;;8.90;99.90;;;;;;4905233;29;20208;-70
2023/01/05 09:12:12;;;;;;;0.65;0.20;;;8.90;99.90;;;;;;4912740;29;20217;-70
2023/01/05 09:14:39;;;;;;;0.52;0.38;;;9.00;99.90;;;;;;4911614;29;20705;-70
2023/01/05 09:17:07;;;;;;;0.40;0.20;;;9.00;99.90;;;;;;4906579;29;20736;-70
2023/01/05 09:19:33;;;;;;;0.43;0.40;;;9.10;99.90;;;;;;4909007;29;20206;-69
2023/01/05 09:22:00;;;;;;;0.32;0.30;;;9.10;99.90;;;;;;4912575;29;20217;-70
2023/01/05 09:24:27;;;;;;;2.15;0.32;;;9.10;99.90;;;;;;4915617;29;20217;-70
2023/01/05 09:26:54;;;;;;;6.25;0.43;;;9.10;99.90;;;;;;4914288;29;20614;-69
2023/01/05 09:29:20;;;;;;;1.10;0.65;;;9.10;99.90;;;;;;4903770;29;20212;-70
2023/01/05 09:31:47;;;;;;;0.20;0.20;;;9.10;99.90;;;;;;4914140;29;20216;-69
2023/01/05 09:34:16;;;;;;;5.95;0.82;;;9.10;99.90;;;;;;4898010;29;20209;-69
2023/01/05 09:36:43;;;;;;;2.08;0.80;;;9.10;99.90;;;;;;4899344;29;20344;-68
2023/01/05 09:39:10;;;;;;;2.40;0.80;;;9.10;99.90;;;;;;4915948;29;20210;-69
2023/01/05 09:41:40;;;;;;;3.42;0.98;;;9.10;99.90;;;;;;4898649;29;20209;-70
2023/01/05 09:44:15;;;;;;;2.17;0.57;;;9.10;99.90;;;;;;4903951;29;20210;-69
2023/01/05 09:46:46;;;;;;;2.35;0.75;;;9.20;99.90;;;;;;4906906;29;20234;-70
2023/01/05 09:49:20;;;;;;;1.75;0.55;;;9.20;99.90;;;;;;4915336;29;20228;-69
2023/01/05 09:51:49;;;;;;;2.35;0.40;;;9.20;99.90;;;;;;4898516;29;20221;-72
2023/01/05 09:54:17;;;;;;;2.30;1.23;;;9.30;99.90;;;;;;4913260;29;20210;-71
2023/01/05 09:56:46;;;;;;;2.80;1.25;;;9.30;99.90;;;;;;4916486;29;20245;-70
2023/01/05 09:59:17;;;;;;;0.88;0.57;;;9.30;99.90;;;;;;4914974;29;20686;-72
2023/01/05 10:01:46;;;;;;;0.30;0.30;;;9.30;99.90;;;;;;4910068;29;20212;-71
2023/01/05 10:04:17;;;;;;;2.30;0.40;;;9.30;99.90;;;;;;4916088;29;20681;-69
2023/01/05 10:06:47;;;;;;;2.85;0.40;;;9.40;99.90;;;;;;4916109;29;20240;-71
2023/01/05 10:09:20;;;;;;;5.50;0.55;;;9.40;99.90;;;;;;4913912;29;20316;-69
2023/01/05 10:14:39;;;;;;;4.53;1.08;;;9.50;99.90;;;;;;4912064;29;20267;-72
2023/01/05 10:17:12;;;;;;;0.20;0.20;;;9.50;99.90;;;;;;4910732;29;20238;-70
2023/01/05 10:19:41;;;;;;;0.55;0.55;;;9.60;99.90;;;;;;4905694;29;20211;-71
2023/01/05 10:22:22;;;;;;;2.92;0.52;;;9.60;99.90;;;;;;4900292;29;20218;-71
2023/01/05 10:24:55;;;;;;;8.98;0.98;;;9.60;99.90;;;;;;4898650;29;20274;-69
2023/01/05 10:27:27;;;;;;;1.08;0.70;;;9.50;99.90;;;;;;4908649;29;20215;-72
2023/01/05 10:30:02;;;;;;;0.40;0.35;;;9.60;99.90;;;;;;4906218;29;20583;-70
2023/01/05 10:32:36;;;;;;;3.50;1.05;;;9.50;99.90;;;;;;4910018;29;20209;-70
2023/01/05 10:35:27;;;;;;;0.20;0.20;;;9.50;99.90;;;;;;4900398;29;20208;-71
2023/01/05 10:38:04;;;;;;;4.57;0.93;;;9.50;99.90;;;;;;4911863;29;20209;-70
2023/01/05 10:40:46;;;;;;;0.32;0.32;;;9.50;99.90;;;;;;4898928;29;20641;-68
2023/01/05 10:43:24;;;;;;;0.30;0.30;;;9.50;99.90;;;;;;4905069;29;20221;-70
2023/01/05 10:45:51;;;;;;;0.90;0.90;;;9.50;99.90;;;;;;4914485;29;20236;-69
2023/01/05 10:48:20;;;;;;;0.55;0.55;;;9.50;99.90;;;;;;4912496;29;20215;-70
2023/01/05 10:50:49;;;;;;;1.95;0.47;;;9.40;99.90;;;;;;4910852;29;20214;-70
2023/01/05 10:53:18;;;;;;;0.30;0.30;;;9.30;99.90;;;;;;4897816;29;20222;-69
2023/01/05 10:55:51;;;;;;;0.30;0.30;;;9.30;99.90;;;;;;4903280;29;20231;-70
2023/01/05 10:58:25;;;;;;;3.50;0.75;;;9.30;99.90;;;;;;4906844;29;20586;-72
2023/01/05 11:00:55;;;;;;;4.03;0.75;;;9.30;99.90;;;;;;4901751;29;20212;-70
2023/01/05 11:03:29;;;;;;;7.30;0.95;;;9.40;99.90;;;;;;4910409;29;20222;-72
2023/01/05 11:05:57;;;;;;;0.50;0.50;;;9.40;99.90;;;;;;4911388;29;20230;-69
2023/01/05 11:08:27;;;;;;;0.63;0.63;;;9.50;99.90;;;;;;4910388;29;20222;-70
2023/01/05 11:10:57;;;;;;;0.77;0.60;;;9.50;99.90;;;;;;4897386;29;20560;-70
2023/01/05 11:13:31;;;;;;;0.90;0.90;;;9.40;99.90;;;;;;4896976;29;20224;-69
2023/01/05 11:16:05;;;;;;;0.30;0.30;;;9.40;99.90;;;;;;4912535;29;20237;-69
2023/01/05 11:18:36;;;;;;;1.52;1.42;;;9.40;99.90;;;;;;4909486;29;20213;-68
2023/01/05 11:21:13;;;;;;;3.35;1.88;;;9.40;99.90;;;;;;4917027;29;20209;-69
2023/01/05 11:23:42;;;;;;;2.05;1.05;;;9.40;99.90;;;;;;4928382;29;20230;-71
2023/01/05 11:26:24;;;;;;;0.65;0.60;;;9.40;99.90;;;;;;4931733;29;20236;-69
2023/01/05 11:29:01;;;;;;;0.30;0.30;;;9.40;99.90;;;;;;4924473;29;20542;-70
2023/01/05 11:31:32;;;;;;;4.35;1.13;;;9.40;99.90;;;;;;4913805;29;20333;-68
2023/01/05 11:34:09;;;;;;;1.30;0.63;;;9.40;99.90;;;;;;4909221;29;20210;-68
2023/01/05 11:36:38;;;;;;;4.68;0.90;;;9.40;99.90;;;;;;4909344;29;20305;-68
2023/01/05 11:39:05;;;;;;;3.95;1.55;;;9.40;99.90;;;;;;4911766;29;20211;-68
2023/01/05 11:41:33;;;;;;;0.60;0.60;;;9.30;99.90;;;;;;4911779;29;20232;-68
2023/01/05 11:44:02;;;;;;;1.88;1.85;;;9.30;99.90;;;;;;4914292;29;20220;-68
2023/01/05 11:46:40;;;;;;;4.65;1.05;;;9.30;99.90;;;;;;4912498;29;20233;-69
2023/01/05 11:49:08;;;;;;;0.35;0.35;;;9.40;99.90;;;;;;4912539;29;20215;-68
2023/01/05 11:51:38;;;;;;;0.47;0.47;;;9.40;99.90;;;;;;4911745;29;20277;-69
2023/01/05 11:54:24;;;;;;;1.38;0.40;;;9.40;99.90;;;;;;4898683;29;20220;-68
2023/01/05 11:57:06;;;;;;;3.42;1.00;;;9.40;99.90;;;;;;4907964;29;20234;-68
2023/01/05 11:59:37;;;;;;;1.77;0.47;;;9.50;99.90;;;;;;4907085;29;20210;-70
2023/01/05 12:02:25;;;;;;;10.88;1.95;;;9.50;99.90;;;;;;4912469;29;20222;-68
2023/01/05 12:05:13;;;;;;;2.45;1.75;;;9.50;99.90;;;;;;4911984;29;20208;-68
2023/01/05 12:07:47;;;;;;;10.35;0.68;;;9.40;99.90;;;;;;4910627;29;20206;-67
2023/01/05 12:10:28;;;;;;;3.70;1.10;;;9.40;99.90;;;;;;4913564;29;20626;-68
2023/01/05 12:13:03;;;;;;;1.58;0.50;;;9.30;99.90;;;;;;4905666;29;20553;-70
2023/01/05 12:15:51;;;;;;;1.00;0.47;;;9.30;99.90;;;;;;4909525;29;20613;-68
2023/01/05 12:18:30;;;;;;;1.55;1.15;;;9.20;99.90;;;;;;4901260;29;20218;-69
2023/01/05 12:21:06;;;;;;;2.25;2.15;;;9.20;99.90;;;;;;4901815;29;20218;-69
2023/01/05 12:24:05;;;;;;;2.83;0.50;;;9.20;99.90;;;;;;4908226;29;20211;-68
2023/01/05 12:26:38;;;;;;;3.05;1.55;;;9.20;99.90;;;;;;4913000;29;20238;-70
2023/01/05 12:29:39;;;;;;;0.43;0.43;;;9.20;99.90;;;;;;4909984;29;20224;-68
2023/01/05 12:32:17;;;;;;;0.30;0.30;;;9.20;99.90;;;;;;4897601;29;20213;-69
2023/01/05 12:35:20;;;;;;;1.08;1.00;;;9.20;99.90;;;;;;4908686;29;20215;-70
2023/01/05 12:37:59;;;;;;;0.40;0.38;;;9.20;99.90;;;;;;4898281;29;20597;-68
2023/01/05 12:40:47;;;;;;;3.10;1.15;;;9.20;99.90;;;;;;4903961;29;20579;-69
2023/01/05 12:43:24;;;;;;;2.67;0.63;;;9.20;99.90;;;;;;4913468;29;20213;-69
2023/01/05 12:46:20;;;;;;;0.47;0.47;;;9.20;99.90;;;;;;4914848;29;20247;-70
2023/01/05 12:48:52;;;;;;;1.77;1.00;;;9.20;99.90;;;;;;4893888;29;20208;-69
2023/01/05 12:51:25;;;;;;;6.05;0.55;;;9.20;99.90;;;;;;4913329;29;20214;-70
2023/01/05 12:53:56;;;;;;;5.30;0.63;;;9.20;99.90;;;;;;4915326;29;20220;-70
2023/01/05 12:56:30;;;;;;;8.38;1.38;;;9.20;99.90;;;;;;4912128;29;20240;-69
2023/01/05 12:59:09;;;;;;;0.70;0.70;;;9.20;99.90;;;;;;4915179;29;20698;-70
2023/01/05 13:01:49;;;;;;;7.85;1.65;;;9.10;99.90;;;;;;4905854;29;20552;-70
2023/01/05 13:04:32;;;;;;;1.00;0.70;;;9.20;99.90;;;;;;4910651;29;20213;-69
2023/01/05 13:07:02;;;;;;;1.65;1.30;;;9.30;99.90;;;;;;4909620;29;20228;-70
2023/01/05 13:09:31;;;;;;;2.92;0.85;;;9.30;99.90;;;;;;4909198;29;20270;-69
2023/01/05 13:12:04;;;;;;;11.35;5.63;;;9.30;99.90;;;;;;4915844;29;20220;-69
2023/01/05 13:14:34;;;;;;;2.50;2.33;;;9.30;99.90;;;;;;4916613;29;20641;-69
2023/01/05 13:17:04;;;;;;;1.95;1.00;;;9.30;99.90;;;;;;4913788;29;20237;-70
2023/01/05 13:19:34;;;;;;;3.47;1.25;;;9.20;99.90;;;;;;4909348;29;20210;-70
2023/01/05 13:22:09;;;;;;;0.50;0.50;;;9.10;99.90;;;;;;4911221;29;20242;-70
2023/01/05 13:24:39;;;;;;;0.63;0.63;;;9.10;99.90;;;;;;4914775;29;20213;-68
2023/01/05 13:27:10;;;;;;;8.80;1.63;;;9.00;99.90;;;;;;4909812;29;20249;-70
2023/01/05 13:29:43;;;;;;;3.80;0.95;;;8.90;99.90;;;;;;4907119;29;20228;-69
2023/01/05 13:32:35;;;;;;;13.95;1.35;;;8.90;99.90;;;;;;4915181;29;20213;-69
2023/01/05 13:35:28;;;;;;;1.67;0.65;;;8.90;99.90;;;;;;4901496;29;20706;-70
2023/01/05 13:38:26;;;;;;;3.08;0.68;;;8.80;99.90;;;;;;4912646;29;20259;-70
2023/01/05 13:41:12;;;;;;;4.78;2.97;;;8.80;99.90;;;;;;4913042;29;20589;-69
2023/01/05 13:44:06;;;;;;;1.17;1.13;;;8.70;99.90;;;;;;4912926;29;20221;-70
2023/01/05 13:46:51;;;;;;;0.68;0.68;;;8.70;99.90;;;;;;4910259;29;20229;-70
2023/01/05 13:49:38;;;;;;;3.38;0.52;;;8.60;99.90;;;;;;4908748;29;20233;-68
2023/01/05 13:52:17;;;;;;;1.58;1.10;;;8.60;99.90;;;;;;4912495;29;20264;-69
2023/01/05 13:54:46;;;;;;;0.65;0.65;;;8.50;99.90;;;;;;4897310;29;20216;-69
2023/01/05 13:57:19;;;;;;;1.75;0.60;;;8.50;99.90;;;;;;4912697;29;20256;-69
2023/01/05 13:59:51;;;;;;;3.00;0.80;;;8.50;99.90;;;;;;4910378;29;20225;-69
2023/01/05 14:02:29;;;;;;;3.60;1.00;;;8.40;99.90;;;;;;4905689;29;20217;-70
2023/01/05 14:04:57;;;;;;;0.65;0.65;;;8.40;99.90;;;;;;4915745;29;20663;-70
2023/01/05 14:07:24;;;;;;;2.13;1.35;;;8.40;99.90;;;;;;4908842;29;20659;-69
2023/01/05 14:09:53;;;;;;;6.95;1.10;;;8.40;99.90;;;;;;4916831;29;20244;-69
2023/01/05 14:12:42;;;;;;;0.43;0.43;;;8.30;99.90;;;;;;4913890;29;20292;-69
2023/01/05 14:15:36;;;;;;;1.40;0.98;;;8.30;99.90;;;;;;4907997;29;20225;-69
2023/01/05 14:18:04;;;;;;;0.95;0.85;;;8.20;99.90;;;;;;4910231;29;20236;-69
2023/01/05 14:20:43;;;;;;;1.85;0.65;;;8.10;99.90;;;;;;4912387;29;20209;-69
2023/01/05 14:23:47;;;;;;;2.53;0.50;;;8.10;99.90;;;;;;4906883;29;20211;-69
2023/01/05 14:26:14;;;;;;;0.32;0.30;;;8.10;99.90;;;;;;4912943;29;20225;-69
2023/01/05 14:28:47;;;;;;;2.40;0.40;;;8.10;99.90;;;;;;4914617;29;20209;-69
2023/01/05 14:31:37;;;;;;;0.40;0.40;;;8.10;99.90;;;;;;4913316;29;20268;-69
2023/01/05 14:34:08;;;;;;;2.70;0.70;;;8.10;99.90;;;;;;4912204;29;20209;-69
2023/01/05 14:36:37;;;;;;;1.65;1.45;;;8.10;99.90;;;;;;4911244;29;20278;-69
2023/01/05 14:39:07;;;;;;;0.77;0.77;;;8.00;99.90;;;;;;4915674;29;20225;-69
2023/01/05 14:41:34;;;;;;;8.38;0.95;;;8.10;99.90;;;;;;4910295;29;20289;-69
2023/01/05 14:44:04;;;;;;;0.32;0.30;;;8.10;99.90;;;;;;4915360;29;20225;-68
2023/01/05 14:46:47;;;;;;;0.43;0.43;;;8.10;99.90;;;;;;4906295;29;20244;-71
2023/01/05 14:49:20;;;;;;;0.57;0.57;;;8.10;99.90;;;;;;4914402;29;20299;-70
2023/01/05 14:51:53;;;;;;;4.30;0.35;;;8.10;99.90;;;;;;4910549;29;20218;-69
2023/01/05 14:54:36;;;;;;;0.77;0.55;;;8.10;99.90;;;;;;4915090;29;20339;-70
2023/01/05 14:57:37;;;;;;;0.10;0.10;;;8.10;99.90;;;;;;4911449;29;20233;-70
2023/01/05 15:00:11;;;;;;;1.15;1.05;;;8.10;99.90;;;;;;4913084;29;20253;-69
2023/01/05 15:02:49;;;;;;;13.30;1.45;;;8.10;99.90;;;;;;4907523;29;20232;-70
2023/01/05 15:05:18;;;;;;;0.50;0.50;;;8.00;99.90;;;;;;4910996;29;20237;-70
2023/01/05 15:07:52;;;;;;;0.20;0.20;;;8.10;99.90;;;;;;4909252;29;20206;-70
2023/01/05 15:10:40;;;;;;;0.88;0.75;;;8.10;99.90;;;;;;4914755;29;20287;-70
2023/01/05 15:13:35;;;;;;;1.08;0.52;;;8.10;99.90;;;;;;4909557;29;20220;-70
2023/01/05 15:16:09;;;;;;;0.65;0.65;;;8.10;99.90;;;;;;4904523;29;20248;-70
2023/01/05 15:19:01;;;;;;;0.50;0.50;;;8.00;99.90;;;;;;4906424;29;20898;-70
2023/01/05 15:21:48;;;;;;;1.20;1.20;;;8.10;99.90;;;;;;4902996;29;20216;-70
2023/01/05 15:25:12;;;;;;;0.95;0.55;;;8.00;99.90;;;;;;4900208;29;20205;-70
2023/01/05 15:28:07;;;;;;;1.38;0.95;;;8.10;99.90;;;;;;4861377;29;20221;-69
2023/01/05 15:30:57;;;;;;;10.63;0.85;;;8.00;99.90;;;;;;4857697;29;20269;-69
2023/01/05 15:33:32;;;;;;;1.17;0.30;;;8.00;99.90;;;;;;4898774;29;20699;-70
2023/01/05 15:36:04;;;;;;;2.47;0.90;;;8.10;99.90;;;;;;4913037;29;20248;-70
2023/01/05 15:38:43;;;;;;;1.90;1.15;;;8.00;99.90;;;;;;4909032;29;20229;-69
2023/01/05 15:41:12;;;;;;;0.57;0.57;;;8.00;99.90;;;;;;4911360;29;20228;-69
2023/01/05 15:43:41;;;;;;;1.23;1.23;;;8.00;99.90;;;;;;4911570;29;20217;-70
2023/01/05 15:46:08;;;;;;;2.47;2.28;;;8.10;99.90;;;;;;4913779;29;20233;-70
2023/01/05 15:48:40;;;;;;;0.80;0.80;;;8.10;99.90;;;;;;4912090;29;20221;-70
2023/01/05 15:51:10;;;;;;;1.08;1.08;;;8.00;99.90;;;;;;4911680;29;20570;-70
2023/01/05 15:53:39;;;;;;;6.65;2.80;;;8.00;99.90;;;;;;4906487;29;20217;-70
2023/01/05 15:56:23;;;;;;;2.92;2.45;;;8.10;99.90;;;;;;4909663;29;20319;-70
2023/01/05 15:58:50;;;;;;;2.15;1.55;;;8.00;99.90;;;;;;4909055;29;20255;-70
2023/01/05 16:01:16;;;;;;;5.13;1.85;;;8.00;99.90;;;;;;4907637;29;20211;-70
2023/01/05 16:03:45;;;;;;;5.88;2.70;;;8.00;99.90;;;;;;4899573;29;20205;-70
2023/01/05 16:06:17;;;;;;;5.20;2.90;;;8.00;99.90;;;;;;4908047;29;20237;-69
2023/01/05 16:08:46;;;;;;;4.25;1.30;;;8.00;99.90;;;;;;4912517;29;20209;-69
2023/01/05 16:11:17;;;;;;;2.42;2.00;;;8.00;99.90;;;;;;4910988;29;20213;-68
2023/01/05 16:13:48;;;;;;;6.28;3.78;;;8.00;99.90;;;;;;4906922;29;20213;-68
2023/01/05 16:16:20;;;;;;;4.00;1.83;;;7.90;99.90;;;;;;4908044;29;20247;-68
2023/01/05 16:18:52;;;;;;;8.52;3.45;;;7.90;99.90;;;;;;4909455;29;20226;-68
2023/01/05 16:21:29;;;;;;;2.03;1.58;;;8.00;99.90;;;;;;4905424;29;20272;-69
2023/01/05 16:23:59;;;;;;;2.95;1.10;;;7.90;99.90;;;;;;4895970;29;20217;-70
2023/01/05 16:26:26;;;;;;;5.45;1.60;;;7.90;99.90;;;;;;4906439;29;20234;-70
2023/01/05 16:28:53;;;;;;;0.70;0.70;;;8.00;99.90;;;;;;4911382;29;20605;-70
2023/01/05 16:31:27;;;;;;;4.05;1.38;;;7.90;99.90;;;;;;4907973;29;20640;-70
2023/01/05 16:34:05;;;;;;;2.35;0.80;;;7.90;99.90;;;;;;4905680;29;20217;-69
2023/01/05 16:36:33;;;;;;;3.90;1.60;;;7.90;99.90;;;;;;4905799;29;20862;-69
2023/01/05 16:39:13;;;;;;;4.55;1.15;;;7.80;99.90;;;;;;4914165;29;20226;-68
2023/01/05 16:42:30;;;;;;;1.60;1.50;;;7.80;99.90;;;;;;4908855;29;20676;-69
2023/01/05 16:44:31;;;;;;;5.35;1.15;;;7.80;99.90;;;;;;4901331;29;20208;-69
2023/01/05 16:47:06;;;;;;;1.95;1.00;;;7.80;99.90;;;;;;4911683;29;20324;-69
2023/01/05 16:49:35;;;;;;;3.78;1.90;;;7.80;99.90;;;;;;4903102;29;20216;-69
2023/01/05 16:52:05;;;;;;;1.52;0.70;;;7.80;99.90;;;;;;4909756;29;20221;-69
2023/01/05 16:54:38;;;;;;;2.05;1.25;;;7.80;99.90;;;;;;4906445;29;20219;-70
2023/01/05 16:57:23;;;;;;;1.48;1.48;;;7.80;99.90;;;;;;4909664;29;20323;-70
2023/01/05 16:59:51;;;;;;;2.15;1.02;;;7.80;99.90;;;;;;4903439;29;20216;-71
2023/01/05 17:02:43;;;;;;;6.10;2.30;;;7.80;99.90;;;;;;4910420;29;20221;-70
2023/01/05 17:05:11;;;;;;;1.33;1.33;;;7.80;99.90;;;;;;4898311;29;20624;-69
2023/01/05 17:07:42;;;;;;;3.15;2.10;;;7.70;99.90;;;;;;4906939;29;20208;-70
2023/01/05 17:10:16;;;;;;;2.60;2.20;;;7.70;99.90;;;;;;4905455;29;20212;-68
2023/01/05 17:12:43;;;;;;;1.60;1.60;;;7.70;99.90;;;;;;4910991;29;20215;-70
2023/01/05 17:15:18;;;;;;;8.43;2.28;;;7.70;99.90;;;;;;4902900;29;20233;-71
2023/01/05 17:17:45;;;;;;;1.00;1.00;;;7.70;99.90;;;;;;4906435;29;20365;-69
2023/01/05 17:20:12;;;;;;;8.80;2.60;;;7.70;99.90;;;;;;4910157;29;20220;-70
2023/01/05 17:22:40;;;;;;;2.67;1.45;;;7.70;99.90;;;;;;4911238;29;20216;-68
2023/01/05 17:25:09;;;;;;;2.85;2.65;;;7.70;99.90;;;;;;4907867;29;20728;-68
2023/01/05 17:27:36;;;;;;;2.47;2.10;;;7.70;99.90;;;;;;4905139;29;20213;-68
2023/01/05 17:30:04;;;;;;;1.40;1.40;;;7.60;99.90;;;;;;4906282;29;20221;-69
2023/01/05 17:32:30;;;;;;;2.97;1.80;;;7.60;99.90;;;;;;4911392;29;20209;-68
2023/01/05 17:34:57;;;;;;;3.70;1.58;;;7.60;99.90;;;;;;4910398;29;20698;-68
2023/01/05 17:37:24;;;;;;;8.50;2.55;;;7.60;99.90;;;;;;4913573;29;20224;-68
2023/01/05 17:39:52;;;;;;;7.43;3.28;;;7.50;99.90;;;;;;4912415;29;20213;-67
2023/01/05 17:45:02;;;;;;;2.90;2.80;;;7.50;99.90;;;;;;4905068;29;20216;-67
2023/01/05 17:47:29;;;;;;;4.47;2.40;;;7.40;99.90;;;;;;4907509;29;20255;-67
2023/01/05 17:49:55;;;;;;;4.05;2.13;;;7.40;99.90;;;;;;4909212;29;20579;-67
2023/01/05 17:52:22;;;;;;;2.78;2.60;;;7.30;99.90;;;;;;4909649;29;20209;-67
2023/01/05 17:54:49;;;;;;;3.80;3.50;;;7.30;99.90;;;;;;4908899;29;20225;-66
2023/01/05 17:57:17;;;;;;;5.60;3.88;;;7.20;99.90;;;;;;4912412;29;20241;-66
2023/01/05 17:59:44;;;;;;;4.47;3.58;;;7.20;99.90;;;;;;4913593;29;20698;-68
2023/01/05 18:02:11;;;;;;;3.38;2.95;;;7.20;99.90;;;;;;4914773;29;20208;-67
2023/01/05 18:04:38;;;;;;;5.15;4.60;;;7.20;99.90;;;;;;4907237;29;20208;-66
2023/01/05 18:07:04;;;;;;;6.18;5.25;;;7.10;99.90;;;;;;4899339;29;20722;-67
2023/01/05 18:09:32;;;;;;;8.20;2.97;;;7.10;99.90;;;;;;4909030;29;20673;-67
2023/01/05 18:11:59;;;;;;;10.70;4.07;;;7.00;99.90;;;;;;4909726;29;20215;-67
2023/01/05 18:14:27;;;;;;;4.38;3.97;;;7.00;99.90;;;;;;4914558;29;20209;-67
2023/01/05 18:16:54;;;;;;;8.68;3.88;;;6.90;99.90;;;;;;4907942;29;20756;-67
2023/01/05 18:19:21;;;;;;;6.00;5.45;;;6.90;99.90;;;;;;4906673;29;20228;-67
2023/01/05 18:21:49;;;;;;;8.15;5.50;;;6.80;99.90;;;;;;4914273;29;20216;-67
2023/01/05 18:24:15;;;;;;;3.97;3.67;;;6.80;99.90;;;;;;4913969;29;20212;-66
2023/01/05 18:26:42;;;;;;;6.10;5.50;;;6.70;99.90;;;;;;4908798;29;20232;-66
2023/01/05 18:29:09;;;;;;;4.82;3.55;;;6.70;99.90;;;;;;4907465;29;20208;-66
2023/01/05 18:31:37;;;;;;;4.72;4.43;;;6.60;99.90;;;;;;4915252;29;20280;-67